Capitol Logistics 867


GOBD
Blaise Diagne International Airport
Dakar, SN
FACT
Cape Town International Airport
Cape Town, ZA

Route Details

Aircraft Information
Primary: Boeing 767-300BDSF
Backup: Not Available
Route Data
Distance: 3553nm
Sched. Duration: 6h 50m
Avg. Duration: 7h 82m (+132m)
Times Flown: 4
Recm'd Route: Not Available
Planned Altitude: 35,000ft
Origin Wx: GOBD 261300Z 31007KT 250V360 CAVOK 32/17 Q1012 NOSIG
Dest. Wx: FACT 261300Z 19004KT 160V220 9999 SCT030 12/08 Q1023 NOSIG
Notes:

Financial History
Total Freight: 399,368lbs
Average Load: 99,842lbs/flt
Fuel Used: 331,021lbs
Avg. Fuel Used: 82,755lbs/flt
Fuel Expense: $244,956
Avg. Fuel Expense: $61,239
Avg. Fuel Cost: $0.74/lbs
Total Gross Income: $3,852,329
Pilot Pay: $976
Total Expenses: $416,260
Total Revenue: $3,182,695
Average Revenue: $963,082.33